sensor_id;sensor_type;location;lat;lon;timestamp;pressure;altitude;pressure_sealevel;temperature;humidity
79250;BME280;68679;51.030;7.584;2024-02-04T00:01:09;99732.22;;;9.56;79.78
79250;BME280;68679;51.030;7.584;2024-02-04T00:03:35;99734.81;;;9.56;79.72
79250;BME280;68679;51.030;7.584;2024-02-04T00:06:00;99728.81;;;9.55;80.25
79250;BME280;68679;51.030;7.584;2024-02-04T00:08:25;99710.47;;;9.55;80.01
79250;BME280;68679;51.030;7.584;2024-02-04T00:10:51;99710.72;;;9.54;80.10
79250;BME280;68679;51.030;7.584;2024-02-04T00:13:16;99723.81;;;9.54;80.12
79250;BME280;68679;51.030;7.584;2024-02-04T00:15:41;99722.25;;;9.53;80.32
79250;BME280;68679;51.030;7.584;2024-02-04T00:18:06;99730.31;;;9.51;80.47
79250;BME280;68679;51.030;7.584;2024-02-04T00:20:32;99720.63;;;9.52;79.95
79250;BME280;68679;51.030;7.584;2024-02-04T00:22:58;99722.25;;;9.53;79.98
79250;BME280;68679;51.030;7.584;2024-02-04T00:25:23;99718.59;;;9.54;79.86
79250;BME280;68679;51.030;7.584;2024-02-04T00:27:48;99720.41;;;9.53;80.33
79250;BME280;68679;51.030;7.584;2024-02-04T00:30:14;99719.63;;;9.53;80.35
79250;BME280;68679;51.030;7.584;2024-02-04T00:32:39;99719.63;;;9.53;80.26
79250;BME280;68679;51.030;7.584;2024-02-04T00:35:04;99721.22;;;9.54;79.91
79250;BME280;68679;51.030;7.584;2024-02-04T00:37:30;99708.13;;;9.54;79.87
79250;BME280;68679;51.030;7.584;2024-02-04T00:39:55;99710.72;;;9.54;79.86
79250;BME280;68679;51.030;7.584;2024-02-04T00:42:21;99693.44;;;9.53;80.15
79250;BME280;68679;51.030;7.584;2024-02-04T00:44:46;99692.41;;;9.54;79.83
79250;BME280;68679;51.030;7.584;2024-02-04T00:47:11;99693.44;;;9.53;80.16
79250;BME280;68679;51.030;7.584;2024-02-04T00:49:38;99708.34;;;9.52;80.03
79250;BME280;68679;51.030;7.584;2024-02-04T00:52:04;99712.78;;;9.52;80.49
79250;BME280;68679;51.030;7.584;2024-02-04T00:54:29;99715.19;;;9.53;80.13
79250;BME280;68679;51.030;7.584;2024-02-04T00:56:54;99723.25;;;9.52;80.06
79250;BME280;68679;51.030;7.584;2024-02-04T00:59:20;99723.25;;;9.52;80.21
79250;BME280;68679;51.030;7.584;2024-02-04T01:01:45;99718.59;;;9.54;80.26
79250;BME280;68679;51.030;7.584;2024-02-04T01:04:10;99710.16;;;9.52;80.05
79250;BME280;68679;51.030;7.584;2024-02-04T01:06:36;99707.56;;;9.52;80.09
79250;BME280;68679;51.030;7.584;2024-02-04T01:09:01;99704.41;;;9.50;80.11
79250;BME280;68679;51.030;7.584;2024-02-04T01:11:26;99694.72;;;9.50;79.87
79250;BME280;68679;51.030;7.584;2024-02-04T01:13:52;99693.94;;;9.50;79.86
79250;BME280;68679;51.030;7.584;2024-02-04T01:16:17;99698.38;;;9.49;79.95
79250;BME280;68679;51.030;7.584;2024-02-04T01:18:42;99710.44;;;9.50;79.98
79250;BME280;68679;51.030;7.584;2024-02-04T01:21:07;99699.66;;;9.47;80.02
79250;BME280;68679;51.030;7.584;2024-02-04T01:23:34;99703.31;;;9.46;80.38
79250;BME280;68679;51.030;7.584;2024-02-04T01:25:59;99698.84;;;9.46;80.22
79250;BME280;68679;51.030;7.584;2024-02-04T01:28:25;99697.28;;;9.45;80.18
79250;BME280;68679;51.030;7.584;2024-02-04T01:30:50;99696.25;;;9.46;80.08
79250;BME280;68679;51.030;7.584;2024-02-04T01:33:15;99688.38;;;9.46;80.52
79250;BME280;68679;51.030;7.584;2024-02-04T01:35:40;99689.19;;;9.47;79.97
79250;BME280;68679;51.030;7.584;2024-02-04T01:38:06;99685.78;;;9.46;80.00
79250;BME280;68679;51.030;7.584;2024-02-04T01:40:31;99684.75;;;9.47;80.08
79250;BME280;68679;51.030;7.584;2024-02-04T01:42:56;99685.22;;;9.44;80.00
79250;BME280;68679;51.030;7.584;2024-02-04T01:45:21;99684.97;;;9.46;80.13
79250;BME280;68679;51.030;7.584;2024-02-04T01:47:47;99680.53;;;9.46;79.99
79250;BME280;68679;51.030;7.584;2024-02-04T01:50:13;99683.97;;;9.47;80.10
79250;BME280;68679;51.030;7.584;2024-02-04T01:52:39;99674.28;;;9.47;79.91
79250;BME280;68679;51.030;7.584;2024-02-04T01:55:07;99686.34;;;9.48;nan
79250;BME280;68679;51.030;7.584;2024-02-04T01:57:33;99679.75;;;9.46;79.89
79250;BME280;68679;51.030;7.584;2024-02-04T02:00:00;99680.53;;;9.46;79.93
79250;BME280;68679;51.030;7.584;2024-02-04T02:02:25;99685.53;;;9.48;80.11
79250;BME280;68679;51.030;7.584;2024-02-04T02:04:51;99682.13;;;9.47;80.09
79250;BME280;68679;51.030;7.584;2024-02-04T02:07:17;99679.75;;;9.46;80.12
79250;BME280;68679;51.030;7.584;2024-02-04T02:09:45;99672.69;;;9.46;79.91
79250;BME280;68679;51.030;7.584;2024-02-04T02:12:19;99676.13;;;9.47;80.02
79250;BME280;68679;51.030;7.584;2024-02-04T02:15:01;99660.63;;;9.45;80.06
79250;BME280;68679;51.030;7.584;2024-02-04T02:17:56;99659.84;;;9.45;80.09
79250;BME280;68679;51.030;7.584;2024-02-04T02:20:41;99665.88;;;9.45;80.12
79250;BME280;68679;51.030;7.584;2024-02-04T02:23:21;99664.81;;;9.46;80.47
79250;BME280;68679;51.030;7.584;2024-02-04T02:25:47;99656.97;;;9.46;79.96
79250;BME280;68679;51.030;7.584;2024-02-04T02:28:12;99659.59;;;9.46;79.94
79250;BME280;68679;51.030;7.584;2024-02-04T02:30:37;99652.56;;;9.47;80.11
79250;BME280;68679;51.030;7.584;2024-02-04T02:33:04;99646.75;;;9.45;80.07
79250;BME280;68679;51.030;7.584;2024-02-04T02:35:31;99652.78;;;9.45;80.00
79250;BME280;68679;51.030;7.584;2024-02-04T02:40:38;99652.25;;;9.43;80.01
79250;BME280;68679;51.030;7.584;2024-02-04T02:43:05;99642.31;;;9.45;79.84
79250;BME280;68679;51.030;7.584;2024-02-04T02:45:31;99644.13;;;9.45;80.22
79250;BME280;68679;51.030;7.584;2024-02-04T02:47:58;99643.34;;;9.44;79.91
79250;BME280;68679;51.030;7.584;2024-02-04T02:50:23;99640.25;;;9.47;80.09
79250;BME280;68679;51.030;7.584;2024-02-04T02:52:49;99642.88;;;9.47;79.76
79250;BME280;68679;51.030;7.584;2024-02-04T02:55:15;99642.09;;;9.47;80.04
79250;BME280;68679;51.030;7.584;2024-02-04T02:57:40;99635.25;;;9.46;80.11
79250;BME280;68679;51.030;7.584;2024-02-04T03:00:06;99634.47;;;9.45;79.86
79250;BME280;68679;51.030;7.584;2024-02-04T03:02:32;99636.84;;;9.47;79.90
79250;BME280;68679;51.030;7.584;2024-02-04T03:04:57;99629.00;;;9.47;79.94
79250;BME280;68679;51.030;7.584;2024-02-04T03:07:22;99636.03;;;9.46;80.14
79250;BME280;68679;51.030;7.584;2024-02-04T03:09:48;99635.25;;;9.46;80.22
79250;BME280;68679;51.030;7.584;2024-02-04T03:12:13;99639.47;;;9.47;80.10
79250;BME280;68679;51.030;7.584;2024-02-04T03:14:38;99642.88;;;9.47;80.11
79250;BME280;68679;51.030;7.584;2024-02-04T03:17:03;99639.47;;;9.47;79.84
79250;BME280;68679;51.030;7.584;2024-02-04T03:19:29;99636.59;;;9.48;79.84
79250;BME280;68679;51.030;7.584;2024-02-04T03:21:54;99633.19;;;9.48;80.07
79250;BME280;68679;51.030;7.584;2024-02-04T03:24:19;99629.28;;;9.50;79.93
79250;BME280;68679;51.030;7.584;2024-02-04T03:26:45;99632.16;;;9.49;80.18
79250;BME280;68679;51.030;7.584;2024-02-04T03:29:10;99637.13;;;9.50;80.04
79250;BME280;68679;51.030;7.584;2024-02-04T03:31:35;99633.97;;;9.48;79.90
79250;BME280;68679;51.030;7.584;2024-02-04T03:34:00;99636.84;;;9.47;80.25
79250;BME280;68679;51.030;7.584;2024-02-04T03:36:27;99636.59;;;9.48;80.02
79250;BME280;68679;51.030;7.584;2024-02-04T03:38:52;99634.75;;;9.49;80.21
79250;BME280;68679;51.030;7.584;2024-02-04T03:41:18;99631.34;;;9.48;80.09
79250;BME280;68679;51.030;7.584;2024-02-04T03:43:44;99629.78;;;9.47;79.99
79250;BME280;68679;51.030;7.584;2024-02-04T03:46:16;99627.69;;;9.49;80.22
79250;BME280;68679;51.030;7.584;2024-02-04T03:48:42;99629.28;;;9.50;79.89
79250;BME280;68679;51.030;7.584;2024-02-04T03:51:08;99633.72;;;9.50;80.20
79250;BME280;68679;51.030;7.584;2024-02-04T03:53:33;99631.88;;;9.50;80.16
79250;BME280;68679;51.030;7.584;2024-02-04T03:55:59;99631.34;;;9.48;80.31
79250;BME280;68679;51.030;7.584;2024-02-04T03:58:24;99630.84;;;9.51;79.98
79250;BME280;68679;51.030;7.584;2024-02-04T04:00:55;99617.75;;;9.51;80.18
79250;BME280;68679;51.030;7.584;2024-02-04T04:03:21;99616.72;;;9.52;79.80
79250;BME280;68679;51.030;7.584;2024-02-04T04:05:46;99610.94;;;9.50;80.12
79250;BME280;68679;51.030;7.584;2024-02-04T04:08:12;99610.69;;;9.52;80.30
79250;BME280;68679;51.030;7.584;2024-02-04T04:10:38;99618.53;;;9.52;79.86
79250;BME280;68679;51.030;7.584;2024-02-04T04:13:03;99620.94;;;9.53;79.90
79250;BME280;68679;51.030;7.584;2024-02-04T04:15:28;99604.44;;;9.53;80.05
79250;BME280;68679;51.030;7.584;2024-02-04T04:17:53;99610.22;;;9.55;79.91
79250;BME280;68679;51.030;7.584;2024-02-04T04:20:19;99618.84;;;9.55;79.69
79250;BME280;68679;51.030;7.584;2024-02-04T04:22:44;99609.41;;;9.54;79.98
79250;BME280;68679;51.030;7.584;2024-02-04T04:25:09;99619.09;;;9.54;79.67
79250;BME280;68679;51.030;7.584;2024-02-04T04:27:34;99616.22;;;9.55;80.15
79250;BME280;68679;51.030;7.584;2024-02-04T04:30:00;99615.44;;;9.55;79.89
79250;BME280;68679;51.030;7.584;2024-02-04T04:32:25;99615.44;;;9.55;79.96
79250;BME280;68679;51.030;7.584;2024-02-04T04:34:50;99626.16;;;9.53;nan
79250;BME280;68679;51.030;7.584;2024-02-04T04:37:16;99632.97;;;9.54;80.14
79250;BME280;68679;51.030;7.584;2024-02-04T04:39:41;99626.69;;;9.55;79.89
79250;BME280;68679;51.030;7.584;2024-02-04T04:42:06;99625.91;;;9.55;80.16
79250;BME280;68679;51.030;7.584;2024-02-04T04:44:31;99627.50;;;9.56;79.80
79250;BME280;68679;51.030;7.584;2024-02-04T04:46:57;99628.28;;;9.56;79.90
79250;BME280;68679;51.030;7.584;2024-02-04T04:49:22;99643.44;;;9.54;80.39
79250;BME280;68679;51.030;7.584;2024-02-04T04:51:47;99640.59;;;9.56;80.29
79250;BME280;68679;51.030;7.584;2024-02-04T04:54:12;99644.78;;;9.57;80.48
79250;BME280;68679;51.030;7.584;2024-02-04T04:56:39;99659.44;;;9.58;80.20
79250;BME280;68679;51.030;7.584;2024-02-04T04:59:05;99639.00;;;9.55;79.90
79250;BME280;68679;51.030;7.584;2024-02-04T05:01:31;99642.16;;;9.57;79.84
79250;BME280;68679;51.030;7.584;2024-02-04T05:03:56;99641.38;;;9.56;80.04
79250;BME280;68679;51.030;7.584;2024-02-04T05:06:21;99654.19;;;9.58;80.10
79250;BME280;68679;51.030;7.584;2024-02-04T05:08:46;99639.78;;;9.55;79.98
79250;BME280;68679;51.030;7.584;2024-02-04T05:11:12;99651.06;;;9.56;80.43
79250;BME280;68679;51.030;7.584;2024-02-04T05:13:39;99651.84;;;9.56;80.08
79250;BME280;68679;51.030;7.584;2024-02-04T05:16:05;99664.94;;;9.56;80.30
79250;BME280;68679;51.030;7.584;2024-02-04T05:18:30;99645.56;;;9.57;80.20
79250;BME280;68679;51.030;7.584;2024-02-04T05:20:55;99643.72;;;9.58;80.01
79250;BME280;68679;51.030;7.584;2024-02-04T05:23:21;99635.88;;;9.58;79.91
79250;BME280;68679;51.030;7.584;2024-02-04T05:25:47;99632.47;;;9.57;80.13
79250;BME280;68679;51.030;7.584;2024-02-04T05:28:12;99635.88;;;9.58;80.25
79250;BME280;68679;51.030;7.584;2024-02-04T05:30:37;99631.44;;;9.58;80.31
79250;BME280;68679;51.030;7.584;2024-02-04T05:33:03;99628.81;;;9.58;79.91
79250;BME280;68679;51.030;7.584;2024-02-04T05:35:28;99632.47;;;9.57;80.24
79250;BME280;68679;51.030;7.584;2024-02-04T05:37:53;99625.41;;;9.58;79.92
79250;BME280;68679;51.030;7.584;2024-02-04T05:40:18;99625.41;;;9.58;80.02
79250;BME280;68679;51.030;7.584;2024-02-04T05:42:45;99635.09;;;9.57;79.80
79250;BME280;68679;51.030;7.584;2024-02-04T05:45:11;99632.72;;;9.56;79.94
79250;BME280;68679;51.030;7.584;2024-02-04T05:47:36;99631.69;;;9.57;79.96
79250;BME280;68679;51.030;7.584;2024-02-04T05:50:01;99632.47;;;9.57;79.98
79250;BME280;68679;51.030;7.584;2024-02-04T05:52:27;99626.44;;;9.57;80.10
79250;BME280;68679;51.030;7.584;2024-02-04T05:54:52;99629.06;;;9.57;79.85
79250;BME280;68679;51.030;7.584;2024-02-04T05:57:17;99622.25;;;9.56;80.06
79250;BME280;68679;51.030;7.584;2024-02-04T05:59:42;99619.38;;;9.57;79.86
79250;BME280;68679;51.030;7.584;2024-02-04T06:02:09;99624.63;;;9.57;80.09
79250;BME280;68679;51.030;7.584;2024-02-04T06:04:34;99617.56;;;9.58;79.96
79250;BME280;68679;51.030;7.584;2024-02-04T06:07:01;99622.25;;;9.56;79.96
79250;BME280;68679;51.030;7.584;2024-02-04T06:09:26;99617.28;;;9.54;79.90
79250;BME280;68679;51.030;7.584;2024-02-04T06:11:52;99611.25;;;9.54;79.88
79250;BME280;68679;51.030;7.584;2024-02-04T06:14:17;99610.22;;;9.55;80.27
79250;BME280;68679;51.030;7.584;2024-02-04T06:16:42;99609.41;;;9.54;80.61
79250;BME280;68679;51.030;7.584;2024-02-04T06:19:07;99608.38;;;9.55;79.68
79250;BME280;68679;51.030;7.584;2024-02-04T06:21:34;99608.38;;;9.55;79.89
79250;BME280;68679;51.030;7.584;2024-02-04T06:23:59;99615.44;;;9.55;79.80
79250;BME280;68679;51.030;7.584;2024-02-04T06:26:24;99607.84;;;9.53;80.53
79250;BME280;68679;51.030;7.584;2024-02-04T06:28:50;99608.06;;;9.52;80.06
79250;BME280;68679;51.030;7.584;2024-02-04T06:31:16;99612.28;;;9.53;80.08
79250;BME280;68679;51.030;7.584;2024-02-04T06:33:41;99618.84;;;9.55;79.78
79250;BME280;68679;51.030;7.584;2024-02-04T06:36:10;99618.53;;;9.52;80.03
79250;BME280;68679;51.030;7.584;2024-02-04T06:38:35;99602.63;;;9.53;79.90
79250;BME280;68679;51.030;7.584;2024-02-04T06:41:01;99598.16;;;9.54;80.25
79250;BME280;68679;51.030;7.584;2024-02-04T06:43:26;99590.06;;;9.55;79.79
79250;BME280;68679;51.030;7.584;2024-02-04T06:45:51;99582.97;;;9.56;79.88
79250;BME280;68679;51.030;7.584;2024-02-04T06:48:19;99570.94;;;9.55;79.87
79250;BME280;68679;51.030;7.584;2024-02-04T06:50:44;99565.44;;;9.56;79.76
79250;BME280;68679;51.030;7.584;2024-02-04T06:53:10;99575.13;;;9.56;79.65
79250;BME280;68679;51.030;7.584;2024-02-04T06:55:36;99571.72;;;9.55;79.75
79250;BME280;68679;51.030;7.584;2024-02-04T06:58:01;99576.44;;;9.53;79.90
79250;BME280;68679;51.030;7.584;2024-02-04T07:00:26;99570.16;;;9.54;79.87
79250;BME280;68679;51.030;7.584;2024-02-04T07:02:52;99573.56;;;9.55;79.81
79250;BME280;68679;51.030;7.584;2024-02-04T07:05:17;99582.97;;;9.56;79.57
79250;BME280;68679;51.030;7.584;2024-02-04T07:07:43;99572.50;;;9.56;79.98
79250;BME280;68679;51.030;7.584;2024-02-04T07:10:08;99571.72;;;9.55;79.99
79250;BME280;68679;51.030;7.584;2024-02-04T07:12:33;99580.38;;;9.56;79.97
79250;BME280;68679;51.030;7.584;2024-02-04T07:14:59;99583.78;;;9.56;79.87
79250;BME280;68679;51.030;7.584;2024-02-04T07:17:24;99569.63;;;9.57;79.69
79250;BME280;68679;51.030;7.584;2024-02-04T07:19:50;99566.22;;;9.57;79.77
79250;BME280;68679;51.030;7.584;2024-02-04T07:22:15;99563.63;;;9.57;79.96
79250;BME280;68679;51.030;7.584;2024-02-04T07:24:40;99550.25;;;9.58;79.63
79250;BME280;68679;51.030;7.584;2024-02-04T07:27:06;99565.19;;;9.58;79.90
79250;BME280;68679;51.030;7.584;2024-02-04T07:29:31;99553.13;;;9.57;80.33
79250;BME280;68679;51.030;7.584;2024-02-04T07:31:56;99549.47;;;9.58;79.64
79250;BME280;68679;51.030;7.584;2024-02-04T07:34:23;99551.31;;;9.57;80.34
79250;BME280;68679;51.030;7.584;2024-02-04T07:36:48;99553.13;;;9.57;79.93
79250;BME280;68679;51.030;7.584;2024-02-04T07:39:13;99556.53;;;9.57;79.70
79250;BME280;68679;51.030;7.584;2024-02-04T07:41:39;99577.50;;;9.57;80.42
79250;BME280;68679;51.030;7.584;2024-02-04T07:44:04;99567.81;;;9.58;80.07
79250;BME280;68679;51.030;7.584;2024-02-04T07:46:29;99572.81;;;9.59;80.18
79250;BME280;68679;51.030;7.584;2024-02-04T07:48:55;99570.19;;;9.59;79.82
79250;BME280;68679;51.030;7.584;2024-02-04T07:51:20;99581.44;;;9.60;80.44
79250;BME280;68679;51.030;7.584;2024-02-04T07:53:46;99574.38;;;9.60;80.87
79250;BME280;68679;51.030;7.584;2024-02-04T07:56:11;99570.72;;;9.61;80.27
79250;BME280;68679;51.030;7.584;2024-02-04T07:58:37;99574.91;;;9.62;79.76
79250;BME280;68679;51.030;7.584;2024-02-04T08:01:02;99573.34;;;9.61;79.96
79250;BME280;68679;51.030;7.584;2024-02-04T08:03:27;99574.13;;;9.62;79.95
79250;BME280;68679;51.030;7.584;2024-02-04T08:05:53;99561.03;;;9.62;79.99
79250;BME280;68679;51.030;7.584;2024-02-04T08:08:18;99558.41;;;9.62;80.00
79250;BME280;68679;51.030;7.584;2024-02-04T08:10:44;99562.09;;;9.61;80.18
79250;BME280;68679;51.030;7.584;2024-02-04T08:13:09;99560.78;;;9.63;80.36
79250;BME280;68679;51.030;7.584;2024-02-04T08:15:34;99558.94;;;9.64;79.80
79250;BME280;68679;51.030;7.584;2024-02-04T08:18:00;99552.69;;;9.65;79.78
79250;BME280;68679;51.030;7.584;2024-02-04T08:20:25;99555.31;;;9.65;79.57
79250;BME280;68679;51.030;7.584;2024-02-04T08:22:51;99566.56;;;9.65;80.00
79250;BME280;68679;51.030;7.584;2024-02-04T08:25:17;99565.53;;;9.66;79.92
79250;BME280;68679;51.030;7.584;2024-02-04T08:27:42;99571.28;;;9.68;79.85
79250;BME280;68679;51.030;7.584;2024-02-04T08:30:08;99566.06;;;9.68;79.83
79250;BME280;68679;51.030;7.584;2024-02-04T08:32:35;99560.28;;;9.66;79.75
79250;BME280;68679;51.030;7.584;2024-02-04T08:35:00;99567.88;;;9.68;80.24
79250;BME280;68679;51.030;7.584;2024-02-04T08:37:25;99570.25;;;9.70;79.95
79250;BME280;68679;51.030;7.584;2024-02-04T08:39:50;99571.03;;;9.70;80.08
79250;BME280;68679;51.030;7.584;2024-02-04T08:42:16;99570.81;;;9.72;79.38
79250;BME280;68679;51.030;7.584;2024-02-04T08:44:41;99562.94;;;9.72;79.62
79250;BME280;68679;51.030;7.584;2024-02-04T08:47:07;99573.16;;;9.73;79.97
79250;BME280;68679;51.030;7.584;2024-02-04T08:49:35;99571.59;;;9.72;79.65
79250;BME280;68679;51.030;7.584;2024-02-04T08:52:01;99566.88;;;9.74;79.50
79250;BME280;68679;51.030;7.584;2024-02-04T08:54:26;99553.00;;;9.74;79.60
79250;BME280;68679;51.030;7.584;2024-02-04T08:56:51;99563.47;;;9.74;79.70
79250;BME280;68679;51.030;7.584;2024-02-04T08:59:17;99559.03;;;9.74;79.29
79250;BME280;68679;51.030;7.584;2024-02-04T09:01:42;99559.81;;;9.75;79.89
79250;BME280;68679;51.030;7.584;2024-02-04T09:04:07;99564.25;;;9.74;79.41
79250;BME280;68679;51.030;7.584;2024-02-04T09:06:33;99545.69;;;9.76;80.56
79250;BME280;68679;51.030;7.584;2024-02-04T09:08:58;99566.63;;;9.76;79.64
79250;BME280;68679;51.030;7.584;2024-02-04T09:11:23;99555.09;;;9.77;79.54
79250;BME280;68679;51.030;7.584;2024-02-04T09:13:49;99556.94;;;9.76;79.75
79250;BME280;68679;51.030;7.584;2024-02-04T09:16:15;99571.06;;;9.75;80.47
79250;BME280;68679;51.030;7.584;2024-02-04T09:18:41;99561.16;;;9.77;80.08
79250;BME280;68679;51.030;7.584;2024-02-04T09:21:06;99569.00;;;9.77;79.82
79250;BME280;68679;51.030;7.584;2024-02-04T09:23:31;99576.59;;;9.79;79.88
79250;BME280;68679;51.030;7.584;2024-02-04T09:25:57;99571.13;;;9.80;80.00
79250;BME280;68679;51.030;7.584;2024-02-04T09:28:22;99564.03;;;9.81;79.82
79250;BME280;68679;51.030;7.584;2024-02-04T09:30:47;99570.31;;;9.80;79.98
79250;BME280;68679;51.030;7.584;2024-02-04T09:33:13;99563.78;;;9.82;79.60
79250;BME280;68679;51.030;7.584;2024-02-04T09:35:39;99576.88;;;9.82;79.95
79250;BME280;68679;51.030;7.584;2024-02-04T09:38:05;99579.25;;;9.84;79.73
79250;BME280;68679;51.030;7.584;2024-02-04T09:40:31;99587.13;;;9.84;79.78
79250;BME280;68679;51.030;7.584;2024-02-04T09:42:58;99597.59;;;9.84;80.00
79250;BME280;68679;51.030;7.584;2024-02-04T09:45:24;99594.72;;;9.85;79.84
79250;BME280;68679;51.030;7.584;2024-02-04T09:47:50;99585.03;;;9.86;79.76
79250;BME280;68679;51.030;7.584;2024-02-04T09:50:18;99587.41;;;9.87;79.71
79250;BME280;68679;51.030;7.584;2024-02-04T09:52:48;99577.19;;;9.86;80.03
79250;BME280;68679;51.030;7.584;2024-02-04T09:55:15;99571.44;;;9.89;79.70
79250;BME280;68679;51.030;7.584;2024-02-04T09:57:42;99568.81;;;9.89;79.59
79250;BME280;68679;51.030;7.584;2024-02-04T10:00:09;99584.28;;;9.90;79.67
79250;BME280;68679;51.030;7.584;2024-02-04T10:02:35;99578.00;;;9.91;79.56
79250;BME280;68679;51.030;7.584;2024-02-04T10:05:01;99586.38;;;9.93;79.49
79250;BME280;68679;51.030;7.584;2024-02-04T10:07:27;99586.38;;;9.93;79.74
79250;BME280;68679;51.030;7.584;2024-02-04T10:09:53;99585.59;;;9.93;79.54
79250;BME280;68679;51.030;7.584;2024-02-04T10:12:18;99574.84;;;9.94;79.51
79250;BME280;68679;51.030;7.584;2024-02-04T10:14:44;99570.44;;;9.95;79.53
79250;BME280;68679;51.030;7.584;2024-02-04T10:17:09;99582.50;;;9.96;79.44
79250;BME280;68679;51.030;7.584;2024-02-04T10:19:34;99576.47;;;9.96;79.48
79250;BME280;68679;51.030;7.584;2024-02-04T10:22:00;99565.72;;;9.97;79.36
79250;BME280;68679;51.030;7.584;2024-02-04T10:24:27;99580.13;;;10.00;79.14
79250;BME280;68679;51.030;7.584;2024-02-04T10:26:54;99586.16;;;10.00;79.40
79250;BME280;68679;51.030;7.584;2024-02-04T10:29:19;99588.78;;;10.00;79.26
79250;BME280;68679;51.030;7.584;2024-02-04T10:31:44;99588.78;;;10.00;79.40
79250;BME280;68679;51.030;7.584;2024-02-04T10:34:10;99581.97;;;9.99;79.60
79250;BME280;68679;51.030;7.584;2024-02-04T10:36:35;99570.69;;;9.99;79.76
79250;BME280;68679;51.030;7.584;2024-02-04T10:39:00;99583.81;;;9.99;79.64
79250;BME280;68679;51.030;7.584;2024-02-04T10:41:26;99577.50;;;10.00;79.46
79250;BME280;68679;51.030;7.584;2024-02-04T10:43:54;99568.88;;;9.99;79.19
79250;BME280;68679;51.030;7.584;2024-02-04T10:46:20;99565.19;;;10.00;79.41
79250;BME280;68679;51.030;7.584;2024-02-04T10:48:59;99556.56;;;10.00;79.43
79250;BME280;68679;51.030;7.584;2024-02-04T10:51:26;99546.88;;;10.00;79.41
79250;BME280;68679;51.030;7.584;2024-02-04T10:53:54;99562.34;;;10.02;79.28
79250;BME280;68679;51.030;7.584;2024-02-04T10:56:26;99568.59;;;10.01;79.60
79250;BME280;68679;51.030;7.584;2024-02-04T10:58:55;99567.81;;;10.00;79.41
79250;BME280;68679;51.030;7.584;2024-02-04T11:01:25;99573.06;;;10.00;79.48
79250;BME280;68679;51.030;7.584;2024-02-04T11:03:52;99561.56;;;10.01;79.29
79250;BME280;68679;51.030;7.584;2024-02-04T11:06:20;99565.97;;;10.01;79.21
79250;BME280;68679;51.030;7.584;2024-02-04T11:08:46;99577.50;;;10.00;79.63
79250;BME280;68679;51.030;7.584;2024-02-04T11:11:11;99569.91;;;9.98;79.80
79250;BME280;68679;51.030;7.584;2024-02-04T11:13:38;99562.59;;;10.00;79.88
79250;BME280;68679;51.030;7.584;2024-02-04T11:16:08;99567.81;;;10.00;79.44
79250;BME280;68679;51.030;7.584;2024-02-04T11:21:50;99555.28;;;10.02;79.37
79250;BME280;68679;51.030;7.584;2024-02-04T11:24:41;99557.91;;;10.02;79.49
79250;BME280;68679;51.030;7.584;2024-02-04T11:27:09;99565.75;;;10.02;79.08
79250;BME280;68679;51.030;7.584;2024-02-04T11:29:35;99546.38;;;10.03;79.11
79250;BME280;68679;51.030;7.584;2024-02-04T11:32:01;99547.16;;;10.04;79.39
79250;BME280;68679;51.030;7.584;2024-02-04T11:34:27;99545.06;;;10.06;79.08
79250;BME280;68679;51.030;7.584;2024-02-04T11:36:52;99555.00;;;10.04;79.23
79250;BME280;68679;51.030;7.584;2024-02-04T11:39:18;99536.69;;;10.04;79.00
79250;BME280;68679;51.030;7.584;2024-02-04T11:41:48;99533.78;;;10.05;78.96
79250;BME280;68679;51.030;7.584;2024-02-04T11:44:24;99519.66;;;10.06;79.13
79250;BME280;68679;51.030;7.584;2024-02-04T11:46:50;99538.78;;;10.07;79.14
79250;BME280;68679;51.030;7.584;2024-02-04T11:49:17;99533.53;;;10.07;79.42
79250;BME280;68679;51.030;7.584;2024-02-04T11:51:51;99520.19;;;10.08;79.45
79250;BME280;68679;51.030;7.584;2024-02-04T11:54:17;99514.16;;;10.08;79.54
79250;BME280;68679;51.030;7.584;2024-02-04T11:56:45;99507.09;;;10.08;79.34
79250;BME280;68679;51.030;7.584;2024-02-04T11:59:11;99514.41;;;10.06;79.63
79250;BME280;68679;51.030;7.584;2024-02-04T12:01:38;99506.31;;;10.08;79.47
79250;BME280;68679;51.030;7.584;2024-02-04T12:06:38;99514.41;;;10.06;79.76
79250;BME280;68679;51.030;7.584;2024-02-04T12:09:03;99501.06;;;10.08;79.44
79250;BME280;68679;51.030;7.584;2024-02-04T12:11:29;99513.13;;;10.09;79.67
79250;BME280;68679;51.030;7.584;2024-02-04T12:13:55;99513.38;;;10.07;80.00
79250;BME280;68679;51.030;7.584;2024-02-04T12:16:21;99507.09;;;10.08;79.66
79250;BME280;68679;51.030;7.584;2024-02-04T12:18:48;99495.56;;;10.09;79.63
79250;BME280;68679;51.030;7.584;2024-02-04T12:21:14;99493.72;;;10.10;79.66
79250;BME280;68679;51.030;7.584;2024-02-04T12:23:40;99496.34;;;10.10;79.56
79250;BME280;68679;51.030;7.584;2024-02-04T12:26:05;99492.69;;;10.11;79.34
79250;BME280;68679;51.030;7.584;2024-02-04T12:28:30;99502.38;;;10.10;79.76
79250;BME280;68679;51.030;7.584;2024-02-04T12:30:56;99486.41;;;10.12;79.64
79250;BME280;68679;51.030;7.584;2024-02-04T12:33:23;99493.47;;;10.11;79.61
79250;BME280;68679;51.030;7.584;2024-02-04T12:35:51;99484.03;;;10.10;79.93
79250;BME280;68679;51.030;7.584;2024-02-04T12:38:17;99478.53;;;10.12;79.67
79250;BME280;68679;51.030;7.584;2024-02-04T12:40:43;99476.97;;;10.11;80.12
79250;BME280;68679;51.030;7.584;2024-02-04T12:43:10;99469.88;;;10.11;80.39
79250;BME280;68679;51.030;7.584;2024-02-04T12:45:36;99473.28;;;10.12;79.50
79250;BME280;68679;51.030;7.584;2024-02-04T12:48:02;99474.88;;;10.13;79.82
79250;BME280;68679;51.030;7.584;2024-02-04T12:50:28;99473.28;;;10.12;79.52
79250;BME280;68679;51.030;7.584;2024-02-04T12:53:07;99466.47;;;10.11;79.86
79250;BME280;68679;51.030;7.584;2024-02-04T12:55:35;99469.88;;;10.11;79.98
79250;BME280;68679;51.030;7.584;2024-02-04T12:58:05;99467.81;;;10.13;80.04
79250;BME280;68679;51.030;7.584;2024-02-04T13:00:32;99467.00;;;10.13;79.60
79250;BME280;68679;51.030;7.584;2024-02-04T13:02:58;99478.31;;;10.13;79.42
79250;BME280;68679;51.030;7.584;2024-02-04T13:05:24;99457.84;;;10.10;79.93
79250;BME280;68679;51.030;7.584;2024-02-04T13:07:54;99462.81;;;10.12;79.86
79250;BME280;68679;51.030;7.584;2024-02-04T13:10:26;99459.97;;;10.13;79.91
79250;BME280;68679;51.030;7.584;2024-02-04T13:12:59;99468.34;;;10.15;79.67